createdAt,value
2023-05-06T00:00:51.670Z,0
2023-05-06T00:02:00.858Z,0
2023-05-06T00:03:10.029Z,0
2023-05-06T00:04:19.196Z,0
2023-05-06T00:05:28.362Z,0
2023-05-06T00:06:36.559Z,0
2023-05-06T00:07:45.731Z,0
2023-05-06T00:08:53.931Z,0
2023-05-06T00:10:03.110Z,0
2023-05-06T00:11:12.258Z,0
2023-05-06T00:12:21.442Z,0
2023-05-06T00:13:30.619Z,0
2023-05-06T00:14:38.809Z,0
2023-05-06T00:15:47.000Z,0
2023-05-06T00:16:56.167Z,0
2023-05-06T00:18:04.363Z,0
2023-05-06T00:19:12.544Z,0
2023-05-06T00:20:21.712Z,0
2023-05-06T00:21:30.899Z,0
2023-05-06T00:22:40.072Z,0
2023-05-06T00:23:49.246Z,0
2023-05-06T00:24:58.416Z,0
2023-05-06T00:26:07.581Z,0
2023-05-06T00:27:16.760Z,0
2023-05-06T00:28:25.935Z,0
2023-05-06T00:29:35.104Z,0
2023-05-06T00:30:44.276Z,0
2023-05-06T00:31:53.448Z,0
2023-05-06T00:33:02.616Z,0
2023-05-06T00:34:10.810Z,0
2023-05-06T00:35:19.979Z,0
2023-05-06T00:36:29.155Z,0
2023-05-06T00:37:38.330Z,0
2023-05-06T00:38:47.490Z,0
2023-05-06T00:39:56.666Z,0
2023-05-06T00:41:05.846Z,0
2023-05-06T00:42:14.041Z,0
2023-05-06T00:43:22.231Z,0
2023-05-06T00:44:30.424Z,0
2023-05-06T00:45:38.611Z,0
2023-05-06T00:46:47.775Z,0
2023-05-06T00:47:56.954Z,0
2023-05-06T00:49:06.126Z,0
2023-05-06T00:50:15.295Z,0
2023-05-06T00:51:24.471Z,0
2023-05-06T00:52:33.651Z,0
2023-05-06T00:54:51.985Z,0
2023-05-06T00:56:01.163Z,0
2023-05-06T00:57:10.331Z,0
2023-05-06T00:58:19.503Z,0
2023-05-06T00:59:28.677Z,0
2023-05-06T01:00:36.874Z,0
2023-05-06T01:01:46.038Z,0
2023-05-06T01:02:55.217Z,0
2023-05-06T01:04:04.384Z,0
2023-05-06T01:05:13.555Z,0
2023-05-06T01:06:22.724Z,0
2023-05-06T01:07:31.902Z,0
2023-05-06T01:08:41.071Z,0
2023-05-06T01:09:49.266Z,0
2023-05-06T01:10:57.465Z,0
2023-05-06T01:12:05.670Z,0
2023-05-06T01:13:13.844Z,0
2023-05-06T01:14:23.021Z,0
2023-05-06T01:15:32.185Z,0
2023-05-06T01:16:41.353Z,0
2023-05-06T01:17:50.542Z,0
2023-05-06T01:18:59.725Z,0
2023-05-06T01:20:08.883Z,0
2023-05-06T01:21:18.050Z,0
2023-05-06T01:22:27.220Z,0
2023-05-06T01:23:36.407Z,0
2023-05-06T01:24:45.563Z,0
2023-05-06T01:25:54.739Z,0
2023-05-06T01:27:03.917Z,0
2023-05-06T01:28:12.104Z,0
2023-05-06T01:29:21.283Z,0
2023-05-06T01:30:30.443Z,0
2023-05-06T01:31:39.633Z,0
2023-05-06T01:32:48.826Z,0
2023-05-06T01:33:57.962Z,0
2023-05-06T01:35:07.134Z,0
2023-05-06T01:36:15.336Z,0
2023-05-06T01:37:23.517Z,0
2023-05-06T01:38:31.709Z,0
2023-05-06T01:39:39.903Z,0
2023-05-06T01:40:49.080Z,0
2023-05-06T01:41:58.245Z,0
2023-05-06T01:43:07.429Z,0
2023-05-06T01:44:16.583Z,0
2023-05-06T01:45:25.769Z,0
2023-05-06T01:46:34.939Z,0
2023-05-06T01:47:44.122Z,0
2023-05-06T01:48:53.289Z,0
2023-05-06T01:50:02.468Z,0
2023-05-06T01:51:11.632Z,0
2023-05-06T01:52:20.789Z,0
2023-05-06T01:53:29.979Z,0
2023-05-06T01:54:38.164Z,0
2023-05-06T01:55:47.337Z,0
2023-05-06T01:56:56.503Z,0
2023-05-06T01:58:05.669Z,0
2023-05-06T01:59:14.844Z,0
2023-05-06T02:00:24.021Z,0
2023-05-06T02:01:33.197Z,0
2023-05-06T02:02:41.387Z,0
2023-05-06T02:03:49.586Z,0
2023-05-06T02:04:57.779Z,0
2023-05-06T02:06:05.962Z,0
2023-05-06T02:07:15.155Z,0
2023-05-06T02:08:24.305Z,0
2023-05-06T02:09:33.472Z,0
2023-05-06T02:10:42.645Z,0
2023-05-06T02:11:51.838Z,0
2023-05-06T02:13:00.996Z,0
2023-05-06T02:14:10.173Z,0
2023-05-06T02:15:19.328Z,0
2023-05-06T02:16:28.505Z,0
2023-05-06T02:17:37.682Z,0
2023-05-06T02:18:46.853Z,0
2023-05-06T02:19:56.023Z,0
2023-05-06T02:21:04.218Z,0
2023-05-06T02:22:13.393Z,0
2023-05-06T02:23:22.558Z,0
2023-05-06T02:24:31.720Z,0
2023-05-06T02:25:40.913Z,0
2023-05-06T02:26:50.078Z,0
2023-05-06T02:27:59.264Z,0
2023-05-06T02:29:07.450Z,0
2023-05-06T02:30:15.639Z,0
2023-05-06T02:31:24.823Z,0
2023-05-06T02:32:33.977Z,0
2023-05-06T02:33:43.154Z,0
2023-05-06T02:34:51.349Z,0
2023-05-06T02:35:59.538Z,0
2023-05-06T02:37:08.704Z,0
2023-05-06T02:38:17.894Z,0
2023-05-06T02:39:27.058Z,0
2023-05-06T02:40:36.234Z,0
2023-05-06T02:41:45.394Z,0
2023-05-06T02:42:54.572Z,0
2023-05-06T02:44:03.741Z,0
2023-05-06T02:45:12.915Z,0
2023-05-06T02:46:22.098Z,0
2023-05-06T02:47:31.255Z,0
2023-05-06T02:48:40.435Z,0
2023-05-06T02:49:49.611Z,0
2023-05-06T02:50:57.784Z,0
2023-05-06T02:52:06.974Z,0
2023-05-06T02:53:16.134Z,0
2023-05-06T02:54:25.388Z,0
2023-05-06T02:55:34.484Z,0
2023-05-06T02:56:43.661Z,0
2023-05-06T02:57:52.839Z,0
2023-05-06T02:59:01.023Z,0
2023-05-06T03:00:09.209Z,0
2023-05-06T03:01:18.383Z,0
2023-05-06T03:02:27.563Z,0
2023-05-06T03:03:36.733Z,0
2023-05-06T03:04:45.905Z,0
2023-05-06T03:05:55.078Z,0
2023-05-06T03:07:04.243Z,0
2023-05-06T03:08:13.426Z,0
2023-05-06T03:09:22.617Z,0
2023-05-06T03:10:31.758Z,0
2023-05-06T03:11:40.942Z,3
2023-05-06T03:12:50.118Z,3
2023-05-06T03:13:59.277Z,3
2023-05-06T03:15:07.479Z,3
2023-05-06T03:16:16.652Z,3
2023-05-06T03:17:25.848Z,3
2023-05-06T03:18:34.978Z,3
2023-05-06T03:19:44.162Z,3
2023-05-06T03:20:53.338Z,4
2023-05-06T03:22:02.506Z,0
2023-05-06T03:23:10.699Z,4
2023-05-06T03:24:18.886Z,4
2023-05-06T03:25:28.058Z,4
2023-05-06T03:26:36.270Z,9
2023-05-06T03:27:44.447Z,1
2023-05-06T03:28:53.639Z,9
2023-05-06T03:30:02.794Z,13
2023-05-06T03:31:11.969Z,5
2023-05-06T03:32:21.132Z,10
2023-05-06T03:33:30.311Z,14
2023-05-06T03:34:39.490Z,14
2023-05-06T03:35:48.652Z,19
2023-05-06T03:36:57.817Z,36
2023-05-06T03:38:07.003Z,41
2023-05-06T03:39:16.168Z,37
2023-05-06T03:40:25.349Z,46
2023-05-06T03:41:34.521Z,38
2023-05-06T03:42:42.710Z,34
2023-05-06T03:43:51.878Z,47
2023-05-06T03:45:01.046Z,57
2023-05-06T03:46:10.221Z,66
2023-05-06T03:47:19.404Z,75
2023-05-06T03:48:28.582Z,81
2023-05-06T03:49:37.744Z,94
2023-05-06T03:50:45.934Z,103
2023-05-06T03:51:54.130Z,113
2023-05-06T03:53:02.314Z,126
2023-05-06T03:54:10.516Z,136
2023-05-06T03:55:19.688Z,150
2023-05-06T03:56:28.856Z,164
2023-05-06T03:57:38.030Z,184
2023-05-06T03:58:47.213Z,185
2023-05-06T03:59:55.392Z,205
2023-05-06T04:01:04.571Z,223
2023-05-06T04:02:13.741Z,233
2023-05-06T04:03:22.932Z,269
2023-05-06T04:04:32.080Z,283
2023-05-06T04:05:41.254Z,306
2023-05-06T04:06:50.433Z,338
2023-05-06T04:07:59.600Z,348
2023-05-06T04:09:08.780Z,371
2023-05-06T04:11:27.120Z,393
2023-05-06T04:12:36.303Z,404
2023-05-06T04:13:45.479Z,418
2023-05-06T04:14:53.640Z,466
2023-05-06T04:16:02.831Z,512
2023-05-06T04:17:11.985Z,565
2023-05-06T04:18:20.189Z,593
2023-05-06T04:19:28.392Z,620
2023-05-06T04:20:37.554Z,632
2023-05-06T04:21:46.728Z,658
2023-05-06T04:22:54.919Z,695
2023-05-06T04:24:03.103Z,728
2023-05-06T04:25:12.285Z,759
2023-05-06T04:26:21.451Z,803
2023-05-06T04:27:30.618Z,818
2023-05-06T04:28:39.794Z,819
2023-05-06T04:29:48.973Z,826
2023-05-06T04:30:58.147Z,886
2023-05-06T04:32:07.318Z,878
2023-05-06T04:33:16.492Z,891
2023-05-06T04:34:25.667Z,925
2023-05-06T04:35:34.837Z,923
2023-05-06T04:36:44.006Z,968
2023-05-06T04:37:53.182Z,1110
2023-05-06T04:39:01.381Z,1072
2023-05-06T04:40:10.551Z,1107
2023-05-06T04:41:19.711Z,1118
2023-05-06T04:42:28.894Z,1191
2023-05-06T04:43:38.064Z,1151
2023-05-06T04:44:47.244Z,1189
2023-05-06T04:45:56.402Z,1153
2023-05-06T04:47:05.606Z,1230
2023-05-06T04:48:14.755Z,1266
2023-05-06T04:49:23.927Z,1456
2023-05-06T04:50:33.114Z,1395
2023-05-06T04:51:42.285Z,1475
2023-05-06T04:52:51.442Z,1509
2023-05-06T04:53:59.625Z,1493
2023-05-06T04:55:08.794Z,1493
2023-05-06T04:56:17.975Z,1476
2023-05-06T04:58:36.329Z,1640
2023-05-06T04:59:45.493Z,1699
2023-05-06T05:00:54.669Z,1661
2023-05-06T05:02:03.835Z,1663
2023-05-06T05:03:13.015Z,1776
2023-05-06T05:04:22.182Z,1860
2023-05-06T05:05:31.366Z,1861
2023-05-06T05:06:40.539Z,1912
2023-05-06T05:07:49.698Z,2054
2023-05-06T05:08:57.908Z,2024
2023-05-06T05:10:07.053Z,2129
2023-05-06T05:11:16.241Z,2209
2023-05-06T05:12:25.410Z,2219
2023-05-06T05:13:34.574Z,2179
2023-05-06T05:14:43.764Z,2129
2023-05-06T05:15:52.944Z,2102
2023-05-06T05:17:02.095Z,2113
2023-05-06T05:18:11.267Z,2404
2023-05-06T05:19:20.449Z,2536
2023-05-06T05:20:29.614Z,2663
2023-05-06T05:21:38.798Z,2528
2023-05-06T05:22:47.975Z,2702
2023-05-06T05:23:56.144Z,2777
2023-05-06T05:25:05.322Z,2602
2023-05-06T05:27:23.669Z,2477
2023-05-06T05:29:41.996Z,2667
2023-05-06T05:30:51.182Z,2826
2023-05-06T05:32:00.368Z,2729
2023-05-06T05:33:09.533Z,2807
2023-05-06T05:35:27.869Z,2898
2023-05-06T05:36:36.074Z,2753
2023-05-06T05:37:44.250Z,2726
2023-05-06T05:38:53.425Z,2853
2023-05-06T05:40:02.610Z,2772
2023-05-06T05:41:11.777Z,2848
2023-05-06T05:42:20.943Z,2774
2023-05-06T05:43:30.125Z,2937
2023-05-06T05:44:39.289Z,3299
2023-05-06T05:46:57.629Z,3101
2023-05-06T05:48:06.805Z,2965
2023-05-06T05:49:15.973Z,3239
2023-05-06T05:50:25.142Z,3355
2023-05-06T05:51:34.318Z,3196
2023-05-06T05:52:42.520Z,3228
2023-05-06T05:53:51.687Z,3196
2023-05-06T05:55:00.846Z,3333
2023-05-06T05:56:10.030Z,3341
2023-05-06T05:57:19.197Z,3518
2023-05-06T05:58:28.381Z,3258
2023-05-06T05:59:37.541Z,3472
2023-05-06T06:00:46.731Z,3645
2023-05-06T06:01:54.910Z,3629
2023-05-06T06:03:03.121Z,3746
2023-05-06T06:04:12.273Z,3563
2023-05-06T06:05:21.449Z,3657
2023-05-06T06:06:30.612Z,4172
2023-05-06T06:07:39.786Z,3916
2023-05-06T06:08:48.969Z,3975
2023-05-06T06:11:07.317Z,4034
2023-05-06T06:12:16.474Z,4292
2023-05-06T06:13:25.647Z,4139
2023-05-06T06:14:34.817Z,3958
2023-05-06T06:15:44.002Z,4044
2023-05-06T06:16:53.172Z,4441
2023-05-06T06:18:01.353Z,4468
2023-05-06T06:19:10.525Z,4237
2023-05-06T06:20:19.706Z,3970
2023-05-06T06:21:28.879Z,4257
2023-05-06T06:22:38.039Z,4310
2023-05-06T06:23:47.223Z,4368
2023-05-06T06:24:56.384Z,4451
2023-05-06T06:26:05.552Z,4587
2023-05-06T06:27:14.750Z,4603
2023-05-06T06:28:23.917Z,4308
2023-05-06T06:29:33.096Z,4409
2023-05-06T06:30:42.261Z,4533
2023-05-06T06:31:51.436Z,4845
2023-05-06T06:32:59.602Z,4837
2023-05-06T06:34:08.794Z,4220
2023-05-06T06:35:17.962Z,4632
2023-05-06T06:36:27.130Z,4673
2023-05-06T06:37:36.318Z,4401
2023-05-06T06:38:45.481Z,4604
2023-05-06T06:39:54.681Z,5243
2023-05-06T06:41:03.838Z,5058
2023-05-06T06:42:13.006Z,4244
2023-05-06T06:43:22.155Z,4405
2023-05-06T06:44:31.352Z,4354
2023-05-06T06:45:40.523Z,5270
2023-05-06T06:46:49.699Z,4896
2023-05-06T06:47:57.876Z,4900
2023-05-06T06:49:06.081Z,5495
2023-05-06T06:51:23.439Z,5326
2023-05-06T06:52:32.604Z,4338
2023-05-06T06:53:41.773Z,4787
2023-05-06T06:54:49.969Z,5586
2023-05-06T06:55:58.154Z,5570
2023-05-06T06:57:07.326Z,5387
2023-05-06T06:58:16.509Z,5110
2023-05-06T06:59:25.680Z,5324
2023-05-06T07:00:34.855Z,5203
2023-05-06T07:01:44.017Z,4744
2023-05-06T07:02:53.186Z,5125
2023-05-06T07:04:02.369Z,5256
2023-05-06T07:05:11.534Z,6646
2023-05-06T07:06:20.699Z,2910
2023-05-06T07:07:29.882Z,5803
2023-05-06T07:08:39.059Z,5719
2023-05-06T07:09:48.227Z,6130
2023-05-06T07:10:56.407Z,7337
2023-05-06T07:13:14.750Z,5473
2023-05-06T07:14:23.922Z,6176
2023-05-06T07:15:33.102Z,6402
2023-05-06T07:16:42.287Z,6053
2023-05-06T07:17:51.452Z,6664
2023-05-06T07:19:00.619Z,6193
2023-05-06T07:20:09.797Z,5410
2023-05-06T07:21:18.962Z,6113
2023-05-06T07:22:28.128Z,5993
2023-05-06T07:23:37.301Z,5699
2023-05-06T07:24:46.473Z,5692
2023-05-06T07:25:54.663Z,5834
2023-05-06T07:27:03.835Z,5720
2023-05-06T07:28:13.004Z,5378
2023-05-06T07:29:22.195Z,5514
2023-05-06T07:30:31.363Z,6224
2023-05-06T07:31:40.523Z,5710
2023-05-06T07:32:49.704Z,5472
2023-05-06T07:33:58.870Z,6258
2023-05-06T07:35:07.083Z,6241
2023-05-06T07:36:15.247Z,5480
2023-05-06T07:37:24.434Z,5803
2023-05-06T07:38:32.632Z,6747
2023-05-06T07:39:41.800Z,7279
2023-05-06T07:40:49.978Z,6657
2023-05-06T07:41:59.152Z,6172
2023-05-06T07:43:08.322Z,6607
2023-05-06T07:44:17.506Z,7478
2023-05-06T07:45:26.670Z,5973
2023-05-06T07:46:35.852Z,6128
2023-05-06T07:47:45.016Z,7042
2023-05-06T07:48:54.173Z,6738
2023-05-06T07:50:03.358Z,6321
2023-05-06T07:51:12.546Z,6906
2023-05-06T07:52:20.740Z,6550
2023-05-06T07:53:29.905Z,6987
2023-05-06T07:54:39.075Z,6743
2023-05-06T07:55:48.238Z,8247
2023-05-06T07:56:57.417Z,7206
2023-05-06T07:58:06.591Z,6144
2023-05-06T07:59:15.768Z,7261
2023-05-06T08:00:24.934Z,7033
2023-05-06T08:01:34.121Z,6895
2023-05-06T08:02:42.307Z,10217
2023-05-06T08:03:50.491Z,9119
2023-05-06T08:04:59.653Z,7984
2023-05-06T08:06:08.829Z,7603
2023-05-06T08:07:18.009Z,5903
2023-05-06T08:08:27.190Z,7096
2023-05-06T08:09:36.349Z,7956
2023-05-06T08:10:45.525Z,4691
2023-05-06T08:11:54.688Z,10420
2023-05-06T08:13:03.869Z,8102
2023-05-06T08:14:13.035Z,10275
2023-05-06T08:15:22.214Z,9769
2023-05-06T08:16:31.393Z,4917
2023-05-06T08:17:40.567Z,10569
2023-05-06T08:18:49.734Z,5688
2023-05-06T08:19:57.918Z,9882
2023-05-06T08:21:07.107Z,12742
2023-05-06T08:22:16.270Z,9433
2023-05-06T08:23:25.433Z,9414
2023-05-06T08:24:34.606Z,8218
2023-05-06T08:26:52.936Z,5658
2023-05-06T08:28:01.150Z,11309
2023-05-06T08:29:10.315Z,8859
2023-05-06T08:30:18.503Z,7873
2023-05-06T08:31:27.678Z,5070
2023-05-06T08:32:35.870Z,12373
2023-05-06T08:33:44.065Z,8930
2023-05-06T08:34:53.231Z,8559
2023-05-06T08:36:02.405Z,8207
2023-05-06T08:37:11.560Z,9956
2023-05-06T08:38:20.752Z,9633
2023-05-06T08:39:29.925Z,5553
2023-05-06T08:40:38.118Z,11886
2023-05-06T08:41:46.306Z,10908
2023-05-06T08:42:55.477Z,8517
2023-05-06T08:44:04.655Z,7177
2023-05-06T08:45:13.826Z,8429
2023-05-06T08:46:22.999Z,5054
2023-05-06T08:47:32.164Z,11444
2023-05-06T08:48:41.339Z,10040
2023-05-06T08:49:50.511Z,9477
2023-05-06T08:50:59.687Z,10419
2023-05-06T08:52:08.851Z,9873
2023-05-06T08:53:18.026Z,7493
2023-05-06T08:54:27.202Z,7018
2023-05-06T08:55:36.376Z,10100
2023-05-06T08:56:44.550Z,5576
2023-05-06T08:57:53.728Z,13848
2023-05-06T08:59:02.911Z,6396
2023-05-06T09:00:12.076Z,11688
2023-05-06T09:01:21.244Z,12490
2023-05-06T09:02:30.430Z,12484
2023-05-06T09:03:39.582Z,17321
2023-05-06T09:04:47.775Z,6716
2023-05-06T09:05:55.978Z,7737
2023-05-06T09:07:04.225Z,5519
2023-05-06T09:08:12.356Z,10602
2023-05-06T09:09:21.528Z,4404
2023-05-06T09:10:30.701Z,8753
2023-05-06T09:11:39.877Z,10718
2023-05-06T09:12:49.043Z,11754
2023-05-06T09:13:58.214Z,10084
2023-05-06T09:15:07.385Z,4950
2023-05-06T09:16:16.572Z,6423
2023-05-06T09:17:25.728Z,10501
2023-05-06T09:18:34.901Z,12408
2023-05-06T09:19:44.068Z,10117
2023-05-06T09:20:53.245Z,10311
2023-05-06T09:22:02.422Z,8897
2023-05-06T09:23:10.610Z,7511
2023-05-06T09:24:19.784Z,9681
2023-05-06T09:25:28.962Z,13713
2023-05-06T09:26:38.127Z,7843
2023-05-06T09:30:05.637Z,10721
2023-05-06T09:31:13.828Z,9461
2023-05-06T09:32:22.026Z,8631
2023-05-06T09:34:40.376Z,11695
2023-05-06T09:35:49.532Z,11816
2023-05-06T09:36:58.712Z,13372
2023-05-06T09:38:07.888Z,13009
2023-05-06T09:39:17.069Z,9247
2023-05-06T09:40:26.229Z,3575
2023-05-06T09:41:35.398Z,12126
2023-05-06T09:42:44.572Z,7736
2023-05-06T09:43:53.740Z,12860
2023-05-06T09:45:02.903Z,5996
2023-05-06T09:46:12.093Z,10381
2023-05-06T09:47:20.284Z,10770
2023-05-06T09:48:29.455Z,10466
2023-05-06T09:49:38.620Z,10287
2023-05-06T09:50:47.792Z,11162
2023-05-06T09:51:56.973Z,9780
2023-05-06T09:53:06.139Z,9486
2023-05-06T09:54:15.317Z,10341
2023-05-06T09:56:33.659Z,10177
2023-05-06T09:58:51.033Z,14877
2023-05-06T09:59:59.222Z,5153
2023-05-06T10:01:07.412Z,8784
2023-05-06T10:02:16.581Z,10583
2023-05-06T10:03:25.750Z,10129
2023-05-06T10:04:34.931Z,10643
2023-05-06T10:05:44.091Z,12894
2023-05-06T10:06:53.281Z,5793
2023-05-06T10:08:02.444Z,7916
2023-05-06T10:09:11.636Z,10928
2023-05-06T10:10:20.794Z,10517
2023-05-06T10:11:28.984Z,10917
2023-05-06T10:12:37.158Z,10174
2023-05-06T10:13:46.384Z,10525
2023-05-06T10:14:55.509Z,10805
2023-05-06T10:16:04.696Z,10641
2023-05-06T10:17:13.857Z,9670
2023-05-06T10:18:23.022Z,10215
2023-05-06T10:20:41.383Z,10579
2023-05-06T10:21:50.540Z,10737
2023-05-06T10:22:59.728Z,10367
2023-05-06T10:24:08.904Z,10911
2023-05-06T10:25:18.070Z,10013
2023-05-06T10:26:27.252Z,10064
2023-05-06T10:27:35.427Z,11001
2023-05-06T10:28:44.594Z,9868
2023-05-06T10:29:53.769Z,10763
2023-05-06T10:31:02.947Z,10629
2023-05-06T10:32:12.106Z,11549
2023-05-06T10:33:21.280Z,10367
2023-05-06T10:34:30.454Z,10288
2023-05-06T10:35:39.626Z,12375
2023-05-06T10:36:48.786Z,7819
2023-05-06T10:37:57.968Z,10747
2023-05-06T10:39:06.168Z,10987
2023-05-06T10:40:14.345Z,11592
2023-05-06T10:41:23.519Z,11147
2023-05-06T10:42:32.684Z,11299
2023-05-06T10:44:51.029Z,12041
2023-05-06T10:45:59.233Z,10845
2023-05-06T10:47:07.418Z,11877
2023-05-06T10:48:16.581Z,11163
2023-05-06T10:49:25.778Z,12358
2023-05-06T10:50:34.948Z,10955
2023-05-06T10:51:44.110Z,10659
2023-05-06T10:52:53.274Z,11950
2023-05-06T10:54:02.446Z,12409
2023-05-06T10:55:11.603Z,12179
2023-05-06T10:56:20.789Z,12271
2023-05-06T10:58:39.141Z,11392
2023-05-06T10:59:48.312Z,11616
2023-05-06T11:00:57.483Z,11686
2023-05-06T11:02:05.663Z,11807
2023-05-06T11:03:14.837Z,12059
2023-05-06T11:04:24.023Z,12071
2023-05-06T11:05:33.193Z,11957
2023-05-06T11:06:42.366Z,12373
2023-05-06T11:07:51.532Z,12408
2023-05-06T11:09:00.699Z,12044
2023-05-06T11:11:19.043Z,13963
2023-05-06T11:13:37.394Z,11495
2023-05-06T11:14:45.590Z,12692
2023-05-06T11:15:53.777Z,10911
2023-05-06T11:18:12.114Z,13167
2023-05-06T11:19:21.290Z,12306
2023-05-06T11:20:29.516Z,17425
2023-05-06T11:21:38.670Z,10762
2023-05-06T11:22:46.833Z,10011
2023-05-06T11:23:56.019Z,5899
2023-05-06T11:25:05.183Z,11647
2023-05-06T11:26:14.370Z,12158
2023-05-06T11:27:23.537Z,13242
2023-05-06T11:28:32.709Z,12681
2023-05-06T11:29:41.875Z,11258
2023-05-06T11:30:51.053Z,17394
2023-05-06T11:32:00.225Z,10359
2023-05-06T11:33:08.421Z,6563
2023-05-06T11:34:16.601Z,11236
2023-05-06T11:35:25.769Z,12888
2023-05-06T11:36:34.941Z,16056
2023-05-06T11:37:44.159Z,8952
2023-05-06T11:38:53.296Z,14655
2023-05-06T11:40:02.461Z,15323
2023-05-06T11:42:20.811Z,18205
2023-05-06T11:43:29.015Z,6637
2023-05-06T11:44:38.175Z,11101
2023-05-06T11:45:47.410Z,12816
2023-05-06T11:46:56.531Z,19427
2023-05-06T11:48:05.696Z,12469
2023-05-06T11:49:14.867Z,11131
2023-05-06T11:50:24.044Z,7499
2023-05-06T11:51:33.203Z,8971
2023-05-06T11:52:42.396Z,14131
2023-05-06T11:53:51.552Z,14774
2023-05-06T11:55:00.725Z,15994
2023-05-06T11:56:09.891Z,18064
2023-05-06T11:57:19.068Z,20296
2023-05-06T11:58:27.246Z,12644
2023-05-06T11:59:36.430Z,11693
2023-05-06T12:00:45.601Z,10090
2023-05-06T12:01:54.772Z,5682
2023-05-06T12:03:03.958Z,15798
2023-05-06T12:04:12.143Z,16263
2023-05-06T12:05:20.343Z,16699
2023-05-06T12:06:29.500Z,19322
2023-05-06T12:07:38.681Z,19609
2023-05-06T12:08:47.856Z,13332
2023-05-06T12:09:57.009Z,8259
2023-05-06T12:11:06.204Z,16542
2023-05-06T12:12:14.382Z,19143
2023-05-06T12:13:22.574Z,14738
2023-05-06T12:14:31.742Z,14162
2023-05-06T12:15:40.916Z,20033
2023-05-06T12:16:50.090Z,11667
2023-05-06T12:17:59.259Z,19069
2023-05-06T12:19:08.425Z,16763
2023-05-06T12:20:17.600Z,14242
2023-05-06T12:21:26.791Z,15119
2023-05-06T12:22:35.961Z,17307
2023-05-06T12:23:45.115Z,13181
2023-05-06T12:24:54.287Z,14781
2023-05-06T12:27:12.638Z,15741
2023-05-06T12:28:20.818Z,19590
2023-05-06T12:29:30.009Z,24660
2023-05-06T12:30:39.180Z,16013
2023-05-06T12:31:48.344Z,17029
2023-05-06T12:32:57.518Z,20907
2023-05-06T12:34:06.694Z,21693
2023-05-06T12:35:15.865Z,20616
2023-05-06T12:36:25.033Z,23765
2023-05-06T12:37:34.203Z,18629
2023-05-06T12:38:43.387Z,15894
2023-05-06T12:39:52.567Z,21426
2023-05-06T12:41:01.726Z,20024
2023-05-06T12:42:10.957Z,24958
2023-05-06T12:43:20.071Z,25699
2023-05-06T12:44:28.264Z,9015
2023-05-06T12:45:37.432Z,35866
2023-05-06T12:46:46.604Z,30633
2023-05-06T12:47:55.774Z,22610
2023-05-06T12:49:04.945Z,26948
2023-05-06T12:50:14.114Z,24336
2023-05-06T12:51:23.301Z,21631
2023-05-06T12:52:32.470Z,20710
2023-05-06T12:53:41.643Z,16481
2023-05-06T12:54:50.819Z,26632
2023-05-06T12:55:59.983Z,25048
2023-05-06T12:57:09.151Z,16028
2023-05-06T12:58:18.330Z,15138
2023-05-06T12:59:27.525Z,13703
2023-05-06T13:00:35.684Z,6614
2023-05-06T13:01:44.860Z,25483
2023-05-06T13:02:54.038Z,25680
2023-05-06T13:04:03.205Z,26258
2023-05-06T13:05:12.378Z,26254
2023-05-06T13:06:21.551Z,25598
2023-05-06T13:07:30.720Z,25547
2023-05-06T13:08:39.884Z,34147
2023-05-06T13:09:49.059Z,10112
2023-05-06T13:10:58.234Z,21536
2023-05-06T13:12:07.453Z,22146
2023-05-06T13:13:16.594Z,26645
2023-05-06T13:14:25.768Z,29314
2023-05-06T13:15:33.945Z,23582
2023-05-06T13:16:43.114Z,24792
2023-05-06T13:17:52.280Z,25467
2023-05-06T13:19:01.473Z,25868
2023-05-06T13:20:10.635Z,25006
2023-05-06T13:21:19.818Z,19261
2023-05-06T13:22:28.979Z,20358
2023-05-06T13:23:38.152Z,37790
2023-05-06T13:24:47.315Z,34041
2023-05-06T13:25:56.497Z,24994
2023-05-06T13:27:05.690Z,23629
2023-05-06T13:28:14.862Z,22251
2023-05-06T13:29:24.006Z,22214
2023-05-06T13:30:32.198Z,20410
2023-05-06T13:31:41.368Z,19749
2023-05-06T13:32:50.546Z,22251
2023-05-06T13:33:59.713Z,22039
2023-05-06T13:35:08.891Z,20685
2023-05-06T13:36:18.070Z,21099
2023-05-06T13:37:27.239Z,18260
2023-05-06T13:38:36.429Z,17854
2023-05-06T13:39:45.579Z,19412
2023-05-06T13:40:53.775Z,20194
2023-05-06T13:42:01.959Z,22305
2023-05-06T13:43:11.139Z,24941
2023-05-06T13:44:20.302Z,24469
2023-05-06T13:45:29.484Z,34517
2023-05-06T13:46:38.650Z,41380
2023-05-06T13:47:47.822Z,34811
2023-05-06T13:48:56.013Z,31222
2023-05-06T13:50:04.218Z,27871
2023-05-06T13:51:13.374Z,23076
2023-05-06T13:52:22.547Z,29155
2023-05-06T13:53:31.722Z,19676
2023-05-06T13:54:40.899Z,27215
2023-05-06T13:55:50.067Z,39662
2023-05-06T13:58:08.413Z,40492
2023-05-06T13:59:17.577Z,41216
2023-05-06T14:00:26.762Z,49493
2023-05-06T14:01:35.924Z,21274
2023-05-06T14:02:45.103Z,9694
2023-05-06T14:03:54.287Z,38727
2023-05-06T14:05:02.470Z,41878
2023-05-06T14:06:11.640Z,34874
2023-05-06T14:07:20.809Z,41465
2023-05-06T14:08:29.979Z,48755
2023-05-06T14:09:39.148Z,26341
2023-05-06T14:10:48.329Z,40295
2023-05-06T14:11:57.495Z,41812
2023-05-06T14:13:06.662Z,49219
2023-05-06T14:14:14.859Z,34496
2023-05-06T14:15:23.043Z,36315
2023-05-06T14:16:31.265Z,36347
2023-05-06T14:18:48.609Z,32198
2023-05-06T14:19:57.778Z,43754
2023-05-06T14:21:06.952Z,45865
2023-05-06T14:22:16.129Z,44718
2023-05-06T14:23:25.296Z,54029
2023-05-06T14:24:34.461Z,50260
2023-05-06T14:25:43.638Z,49787
2023-05-06T14:26:52.829Z,51674
2023-05-06T14:28:01.978Z,41934
2023-05-06T14:29:11.155Z,49102
2023-05-06T14:30:20.326Z,49116
2023-05-06T14:31:29.511Z,57516
2023-05-06T14:32:37.702Z,51770
2023-05-06T14:33:46.860Z,46514
2023-05-06T14:34:56.045Z,21387
2023-05-06T14:36:05.200Z,8699
2023-05-06T14:37:14.380Z,46865
2023-05-06T14:38:23.570Z,25406
2023-05-06T14:39:32.723Z,20111
2023-05-06T14:40:41.895Z,19162
2023-05-06T14:41:50.084Z,18257
2023-05-06T14:42:58.273Z,17046
2023-05-06T14:44:07.441Z,10215
2023-05-06T14:45:16.643Z,10504
2023-05-06T14:46:25.781Z,41743
2023-05-06T14:47:34.957Z,19649
2023-05-06T14:48:44.205Z,58195
2023-05-06T14:49:53.313Z,26661
2023-05-06T14:51:01.513Z,21573
2023-05-06T14:52:09.687Z,20197
2023-05-06T14:53:18.862Z,10091
2023-05-06T14:54:28.035Z,28447
2023-05-06T14:55:37.209Z,16981
2023-05-06T14:56:46.381Z,499
2023-05-06T14:57:55.553Z,45114
2023-05-06T14:59:04.718Z,61423
2023-05-06T15:00:13.895Z,20595
2023-05-06T15:01:23.064Z,22020
2023-05-06T15:02:32.249Z,19309
2023-05-06T15:03:41.439Z,14661
2023-05-06T15:04:50.593Z,56856
2023-05-06T15:05:59.754Z,65225
2023-05-06T15:07:07.972Z,56618
2023-05-06T15:08:17.131Z,45646
2023-05-06T15:09:26.287Z,44227
2023-05-06T15:10:35.464Z,46260
2023-05-06T15:11:44.653Z,44933
2023-05-06T15:12:53.824Z,36925
2023-05-06T15:14:02.987Z,35033
2023-05-06T15:15:12.158Z,40153
2023-05-06T15:16:20.340Z,45406
2023-05-06T15:17:28.598Z,44042
2023-05-06T15:18:37.711Z,38526
2023-05-06T15:19:46.886Z,45138
2023-05-06T15:20:56.053Z,38331
2023-05-06T15:22:05.228Z,46655
2023-05-06T15:23:14.399Z,19977
2023-05-06T15:24:23.569Z,5599
2023-05-06T15:25:31.763Z,15379
2023-05-06T15:26:39.947Z,34501
2023-05-06T15:27:49.133Z,14762
2023-05-06T15:28:58.320Z,5094
2023-05-06T15:30:07.472Z,22751
2023-05-06T15:31:16.653Z,25699
2023-05-06T15:32:25.817Z,12081
2023-05-06T15:33:34.987Z,17224
2023-05-06T15:34:43.193Z,12600
2023-05-06T15:35:52.341Z,8990
2023-05-06T15:37:01.558Z,7666
2023-05-06T15:38:10.712Z,43331
2023-05-06T15:39:19.872Z,51320
2023-05-06T15:40:29.060Z,13631
2023-05-06T15:41:38.224Z,53214
2023-05-06T15:42:47.381Z,19065
2023-05-06T15:43:56.552Z,9846
2023-05-06T15:45:05.741Z,42293
2023-05-06T15:46:14.907Z,45754
2023-05-06T15:47:24.104Z,41159
2023-05-06T15:48:33.244Z,29974
2023-05-06T15:49:41.491Z,36305
2023-05-06T15:50:50.611Z,24786
2023-05-06T15:51:59.773Z,14326
2023-05-06T15:53:08.945Z,12230
2023-05-06T15:54:18.115Z,11405
2023-05-06T15:55:27.299Z,13103
2023-05-06T15:56:36.452Z,4877
2023-05-06T15:57:45.637Z,16259
2023-05-06T15:58:54.804Z,25379
2023-05-06T16:01:13.149Z,5431